createdAt,value
2017-11-16T00:00:39.613Z,10.15
2017-11-16T00:01:42.072Z,9.43
2017-11-16T00:02:44.540Z,9.88
2017-11-16T00:03:47.000Z,11.30
2017-11-16T00:04:49.491Z,8.75
2017-11-16T00:05:51.950Z,11.60
2017-11-16T00:06:54.399Z,9.80
2017-11-16T00:07:56.856Z,8.43
2017-11-16T00:08:59.346Z,10.48
2017-11-16T00:10:01.854Z,11.32
2017-11-16T00:11:04.323Z,8.52
2017-11-16T00:12:06.780Z,11.30
2017-11-16T00:13:09.242Z,10.65
2017-11-16T00:14:11.702Z,12.23
2017-11-16T00:15:14.184Z,10.80
2017-11-16T00:16:16.682Z,10.98
2017-11-16T00:17:19.167Z,10.65
2017-11-16T00:18:21.621Z,9.30
2017-11-16T00:19:24.106Z,11.50
2017-11-16T00:20:26.609Z,10.38
2017-11-16T00:21:29.095Z,13.38
2017-11-16T00:22:31.578Z,8.70
2017-11-16T00:23:34.039Z,10.77
2017-11-16T00:24:36.516Z,17.67
2017-11-16T00:25:39.029Z,14.02
2017-11-16T00:26:41.498Z,9.05
2017-11-16T00:27:43.993Z,8.43
2017-11-16T00:28:46.474Z,10.38
2017-11-16T00:29:48.945Z,9.18
2017-11-16T00:30:51.438Z,11.00
2017-11-16T00:31:53.896Z,10.85
2017-11-16T00:32:56.363Z,11.07
2017-11-16T00:33:58.854Z,12.02
2017-11-16T00:35:01.331Z,12.70
2017-11-16T00:36:03.812Z,11.20
2017-11-16T00:37:06.286Z,16.12
2017-11-16T00:38:08.744Z,13.23
2017-11-16T00:39:11.199Z,11.23
2017-11-16T00:40:13.659Z,10.55
2017-11-16T00:41:16.154Z,11.30
2017-11-16T00:42:18.615Z,11.15
2017-11-16T00:43:21.073Z,11.77
2017-11-16T00:44:23.550Z,9.82
2017-11-16T00:45:26.010Z,13.35
2017-11-16T00:46:28.500Z,11.12
2017-11-16T00:47:30.973Z,12.68
2017-11-16T00:48:33.443Z,13.85
2017-11-16T00:49:35.903Z,13.82
2017-11-16T00:50:38.378Z,15.80
2017-11-16T00:51:40.860Z,14.70
2017-11-16T00:52:43.339Z,10.35
2017-11-16T00:53:45.809Z,11.80
2017-11-16T00:54:48.273Z,11.95
2017-11-16T00:55:50.736Z,13.48
2017-11-16T00:56:53.224Z,11.40
2017-11-16T00:57:55.696Z,10.02
2017-11-16T00:58:58.177Z,16.08
2017-11-16T01:00:00.659Z,16.05
2017-11-16T01:01:03.139Z,18.67
2017-11-16T01:02:05.624Z,14.23
2017-11-16T01:03:08.087Z,12.30
2017-11-16T01:04:10.555Z,9.93
2017-11-16T01:05:13.034Z,13.95
2017-11-16T01:06:15.529Z,15.00
2017-11-16T01:07:18.046Z,10.35
2017-11-16T01:08:20.512Z,16.50
2017-11-16T01:09:22.989Z,13.90
2017-11-16T01:10:25.448Z,12.88
2017-11-16T01:11:27.916Z,12.88
2017-11-16T01:12:30.417Z,12.37
2017-11-16T01:13:32.896Z,10.75
2017-11-16T01:14:35.378Z,10.05
2017-11-16T01:15:37.850Z,12.18
2017-11-16T01:16:40.327Z,13.73
2017-11-16T01:17:42.816Z,18.45
2017-11-16T01:18:45.276Z,17.05
2017-11-16T01:19:47.759Z,15.25
2017-11-16T01:20:50.240Z,9.52
2017-11-16T01:21:52.708Z,13.10
2017-11-16T01:22:55.254Z,18.52
2017-11-16T01:23:57.729Z,15.10
2017-11-16T01:25:00.211Z,18.55
2017-11-16T01:26:02.699Z,13.80
2017-11-16T01:27:05.160Z,13.77
2017-11-16T01:28:07.656Z,12.48
2017-11-16T01:29:10.115Z,17.33
2017-11-16T01:30:12.617Z,15.35
2017-11-16T01:31:15.094Z,21.90
2017-11-16T01:32:17.576Z,14.30
2017-11-16T01:33:20.068Z,16.80
2017-11-16T01:34:22.534Z,21.98
2017-11-16T01:35:24.997Z,12.70
2017-11-16T01:36:27.466Z,13.30
2017-11-16T01:37:29.963Z,12.65
2017-11-16T01:38:32.463Z,26.73
2017-11-16T01:39:34.943Z,20.15
2017-11-16T01:40:37.431Z,15.68
2017-11-16T01:41:39.911Z,14.77
2017-11-16T01:42:42.374Z,17.35
2017-11-16T01:43:44.884Z,17.20
2017-11-16T01:44:47.347Z,16.27
2017-11-16T01:45:49.822Z,14.35
2017-11-16T01:46:52.296Z,18.40
2017-11-16T01:47:54.774Z,13.95
2017-11-16T01:48:57.251Z,16.58
2017-11-16T01:50:00.504Z,17.12
2017-11-16T01:51:02.966Z,17.17
2017-11-16T01:52:05.445Z,14.45
2017-11-16T01:53:07.944Z,13.62
2017-11-16T01:54:10.436Z,14.05
2017-11-16T01:55:12.904Z,14.77
2017-11-16T01:56:15.364Z,17.85
2017-11-16T01:57:17.850Z,17.70
2017-11-16T01:58:20.329Z,15.10
2017-11-16T01:59:22.812Z,19.35
2017-11-16T02:00:25.271Z,19.00
2017-11-16T02:01:27.751Z,15.85
2017-11-16T02:02:40.984Z,20.15
2017-11-16T02:03:43.470Z,16.02
2017-11-16T02:04:45.941Z,15.75
2017-11-16T02:05:48.420Z,14.75
2017-11-16T02:06:50.903Z,22.80
2017-11-16T02:07:53.368Z,16.00
2017-11-16T02:08:55.831Z,14.32
2017-11-16T02:09:58.680Z,17.52
2017-11-16T02:11:01.140Z,17.00
2017-11-16T02:12:03.617Z,20.23
2017-11-16T02:13:06.154Z,13.25
2017-11-16T02:14:08.622Z,17.37
2017-11-16T02:15:11.089Z,18.90
2017-11-16T02:16:13.567Z,17.37
2017-11-16T02:17:16.029Z,17.05
2017-11-16T02:18:18.491Z,13.52
2017-11-16T02:19:20.967Z,14.80
2017-11-16T02:20:23.441Z,13.45
2017-11-16T02:21:25.913Z,16.58
2017-11-16T02:22:28.402Z,20.12
2017-11-16T02:23:30.870Z,16.58
2017-11-16T02:24:33.336Z,19.67
2017-11-16T02:25:35.814Z,17.33
2017-11-16T02:26:38.294Z,19.92
2017-11-16T02:27:40.779Z,24.30
2017-11-16T02:28:43.281Z,15.88
2017-11-16T02:29:45.747Z,21.00
2017-11-16T02:30:48.222Z,20.27
2017-11-16T02:31:50.705Z,28.83
2017-11-16T02:32:53.181Z,22.10
2017-11-16T02:33:55.660Z,14.60
2017-11-16T02:34:58.136Z,21.42
2017-11-16T02:36:00.597Z,18.23
2017-11-16T02:37:03.073Z,20.73
2017-11-16T02:38:05.544Z,18.60
2017-11-16T02:39:08.012Z,20.85
2017-11-16T02:40:10.482Z,19.37
2017-11-16T02:41:12.981Z,19.45
2017-11-16T02:42:15.444Z,17.42
2017-11-16T02:43:17.914Z,17.90
2017-11-16T02:44:20.419Z,20.30
2017-11-16T02:45:22.879Z,17.92
2017-11-16T02:46:25.376Z,19.77
2017-11-16T02:47:27.848Z,16.65
2017-11-16T02:48:30.354Z,16.58
2017-11-16T02:49:32.848Z,18.30
2017-11-16T02:50:35.337Z,19.02
2017-11-16T02:51:37.813Z,18.85
2017-11-16T02:52:40.302Z,23.60
2017-11-16T02:53:42.791Z,13.95
2017-11-16T02:54:45.275Z,18.52
2017-11-16T02:55:47.764Z,21.83
2017-11-16T02:56:50.241Z,19.77
2017-11-16T02:57:52.724Z,18.85
2017-11-16T02:58:55.203Z,20.30
2017-11-16T02:59:57.691Z,25.00
2017-11-16T03:01:00.169Z,23.00
2017-11-16T03:02:02.631Z,20.02
2017-11-16T03:03:05.114Z,17.27
2017-11-16T03:04:07.577Z,20.42
2017-11-16T03:05:10.062Z,21.33
2017-11-16T03:06:12.545Z,21.95
2017-11-16T03:07:15.034Z,25.52
2017-11-16T03:08:17.502Z,21.20
2017-11-16T03:09:19.982Z,18.05
2017-11-16T03:10:22.449Z,16.87
2017-11-16T03:11:24.946Z,16.85
2017-11-16T03:12:27.408Z,18.58
2017-11-16T03:13:29.868Z,20.20
2017-11-16T03:14:32.346Z,22.67
2017-11-16T03:15:34.813Z,21.50
2017-11-16T03:16:37.292Z,15.95
2017-11-16T03:17:39.770Z,16.85
2017-11-16T03:18:42.232Z,29.65
2017-11-16T03:19:44.715Z,22.55
2017-11-16T03:20:47.188Z,18.08
2017-11-16T03:21:49.660Z,19.65
2017-11-16T03:22:52.120Z,26.95
2017-11-16T03:23:54.606Z,24.00
2017-11-16T03:24:57.085Z,22.40
2017-11-16T03:25:59.570Z,22.48
2017-11-16T03:27:02.043Z,18.45
2017-11-16T03:28:04.505Z,21.55
2017-11-16T03:29:06.968Z,25.77
2017-11-16T03:30:09.436Z,22.20
2017-11-16T03:31:11.923Z,17.52
2017-11-16T03:32:14.389Z,22.08
2017-11-16T03:33:16.868Z,15.48
2017-11-16T03:34:19.334Z,20.37
2017-11-16T03:35:21.858Z,23.62
2017-11-16T03:36:24.367Z,28.35
2017-11-16T03:37:26.844Z,23.80
2017-11-16T03:38:29.322Z,19.45
2017-11-16T03:39:31.799Z,19.17
2017-11-16T03:40:34.619Z,20.85
2017-11-16T03:41:37.094Z,31.90
2017-11-16T03:42:39.561Z,30.25
2017-11-16T03:43:42.026Z,26.87
2017-11-16T03:44:44.512Z,29.87
2017-11-16T03:45:46.982Z,21.58
2017-11-16T03:46:49.475Z,19.40
2017-11-16T03:47:51.983Z,23.05
2017-11-16T03:48:54.460Z,19.48
2017-11-16T03:49:56.942Z,24.20
2017-11-16T03:50:59.425Z,26.60
2017-11-16T03:52:01.888Z,22.50
2017-11-16T03:53:04.356Z,19.15
2017-11-16T03:54:06.820Z,26.90
2017-11-16T03:55:09.279Z,21.23
2017-11-16T03:56:12.308Z,20.05
2017-11-16T03:57:14.786Z,21.52
2017-11-16T03:58:17.266Z,25.20
2017-11-16T03:59:19.742Z,31.75
2017-11-16T04:00:22.253Z,22.50
2017-11-16T04:01:24.738Z,21.25
2017-11-16T04:02:27.219Z,19.42
2017-11-16T04:03:29.696Z,14.80
2017-11-16T04:04:32.186Z,23.65
2017-11-16T04:05:34.668Z,21.55
2017-11-16T04:06:37.148Z,25.12
2017-11-16T04:07:39.626Z,20.65
2017-11-16T04:08:42.096Z,17.27
2017-11-16T04:09:44.568Z,20.42
2017-11-16T04:10:47.059Z,21.73
2017-11-16T04:11:49.555Z,22.15
2017-11-16T04:12:52.029Z,20.33
2017-11-16T04:13:54.488Z,20.80
2017-11-16T04:14:56.957Z,22.95
2017-11-16T04:15:59.445Z,19.48
2017-11-16T04:17:01.967Z,20.85
2017-11-16T04:18:10.794Z,24.55
2017-11-16T04:19:13.273Z,24.25
2017-11-16T04:20:15.754Z,26.70
2017-11-16T04:21:18.224Z,26.98
2017-11-16T04:22:20.692Z,21.85
2017-11-16T04:23:23.180Z,20.90
2017-11-16T04:24:25.647Z,21.60
2017-11-16T04:25:28.123Z,17.08
2017-11-16T04:26:30.587Z,19.52
2017-11-16T04:27:33.065Z,19.35
2017-11-16T04:28:35.531Z,30.37
2017-11-16T04:29:38.005Z,21.05
2017-11-16T04:30:40.483Z,18.95
2017-11-16T04:31:42.960Z,19.52
2017-11-16T04:32:45.442Z,24.17
2017-11-16T04:33:47.918Z,27.87
2017-11-16T04:34:50.402Z,23.08
2017-11-16T04:35:52.906Z,21.70
2017-11-16T04:36:55.362Z,24.80
2017-11-16T04:37:57.823Z,25.75
2017-11-16T04:39:00.296Z,19.15
2017-11-16T04:40:02.770Z,20.08
2017-11-16T04:41:05.252Z,20.20
2017-11-16T04:42:07.722Z,18.65
2017-11-16T04:43:10.202Z,20.48
2017-11-16T04:44:12.666Z,21.10
2017-11-16T04:45:17.157Z,27.10
2017-11-16T04:46:19.647Z,24.05
2017-11-16T04:47:22.126Z,23.77
2017-11-16T04:48:24.757Z,27.85
2017-11-16T04:49:27.232Z,18.90
2017-11-16T04:50:29.715Z,22.37
2017-11-16T04:51:32.209Z,23.48
2017-11-16T04:52:34.685Z,23.98
2017-11-16T04:53:37.156Z,22.95
2017-11-16T04:54:39.642Z,27.45
2017-11-16T04:55:42.121Z,29.12
2017-11-16T04:56:44.629Z,25.62
2017-11-16T04:57:47.105Z,27.65
2017-11-16T04:58:49.742Z,26.90
2017-11-16T04:59:52.225Z,25.00
2017-11-16T05:00:54.729Z,32.72
2017-11-16T05:01:57.233Z,30.25
2017-11-16T05:02:59.708Z,26.20
2017-11-16T05:04:02.172Z,30.15
2017-11-16T05:05:04.644Z,25.45
2017-11-16T05:06:07.122Z,33.33
2017-11-16T05:07:09.630Z,28.87
2017-11-16T05:08:12.128Z,28.87
2017-11-16T05:09:14.621Z,26.65
2017-11-16T05:10:17.094Z,24.75
2017-11-16T05:11:19.673Z,24.12
2017-11-16T05:12:22.152Z,29.90
2017-11-16T05:13:24.611Z,27.17
2017-11-16T05:14:27.098Z,30.40
2017-11-16T05:15:29.571Z,28.35
2017-11-16T05:16:32.047Z,30.25
2017-11-16T05:17:34.548Z,32.03
2017-11-16T05:18:37.008Z,25.30
2017-11-16T05:19:39.487Z,25.40
2017-11-16T05:20:41.991Z,23.65
2017-11-16T05:21:44.470Z,28.05
2017-11-16T05:22:46.991Z,29.17
2017-11-16T05:23:49.466Z,28.10
2017-11-16T05:24:51.968Z,31.55
2017-11-16T05:25:54.466Z,28.55
2017-11-16T05:26:56.951Z,22.62
2017-11-16T05:27:59.449Z,20.83
2017-11-16T05:29:01.925Z,27.90
2017-11-16T05:30:04.402Z,25.60
2017-11-16T05:31:06.882Z,25.55
2017-11-16T05:32:09.635Z,32.35
2017-11-16T05:33:12.155Z,19.58
2017-11-16T05:34:14.630Z,25.30
2017-11-16T05:35:17.120Z,25.90
2017-11-16T05:36:19.584Z,28.35
2017-11-16T05:37:22.043Z,24.90
2017-11-16T05:38:24.528Z,33.92
2017-11-16T05:39:26.992Z,28.10
2017-11-16T05:40:29.473Z,26.12
2017-11-16T05:41:31.967Z,24.08
2017-11-16T05:42:34.449Z,24.48
2017-11-16T05:43:36.973Z,27.00
2017-11-16T05:44:39.446Z,23.35
2017-11-16T05:45:41.948Z,26.95
2017-11-16T05:46:44.434Z,30.67
2017-11-16T05:47:46.895Z,40.00
2017-11-16T05:48:49.383Z,31.65
2017-11-16T05:49:51.860Z,32.63
2017-11-16T05:50:54.337Z,28.92
2017-11-16T05:51:56.819Z,26.45
2017-11-16T05:52:59.284Z,28.58
2017-11-16T05:54:01.791Z,24.33
2017-11-16T05:55:04.280Z,31.12
2017-11-16T05:56:06.762Z,30.33
2017-11-16T05:57:09.238Z,32.83
2017-11-16T05:58:11.720Z,28.12
2017-11-16T05:59:14.236Z,33.42
2017-11-16T06:00:17.267Z,33.08
2017-11-16T06:01:19.804Z,33.28
2017-11-16T06:02:22.275Z,29.92
2017-11-16T06:03:24.758Z,30.42
2017-11-16T06:04:27.249Z,32.30
2017-11-16T06:05:29.730Z,34.25
2017-11-16T06:06:32.201Z,31.15
2017-11-16T06:07:34.667Z,30.58
2017-11-16T06:08:37.133Z,39.58
2017-11-16T06:09:39.609Z,32.17
2017-11-16T06:10:42.121Z,40.12
2017-11-16T06:11:44.611Z,33.38
2017-11-16T06:12:47.112Z,31.02
2017-11-16T06:13:49.588Z,34.50
2017-11-16T06:14:52.104Z,36.70
2017-11-16T06:15:54.581Z,34.22
2017-11-16T06:16:57.061Z,29.55
2017-11-16T06:17:59.526Z,33.78
2017-11-16T06:19:02.002Z,38.50
2017-11-16T06:20:04.495Z,30.42
2017-11-16T06:21:07.010Z,34.97
2017-11-16T06:22:09.487Z,34.13
2017-11-16T06:23:11.957Z,29.50
2017-11-16T06:24:14.445Z,38.55
2017-11-16T06:25:17.054Z,40.10
2017-11-16T06:26:19.563Z,27.45
2017-11-16T06:27:22.051Z,32.38
2017-11-16T06:28:24.530Z,38.83
2017-11-16T06:29:27.012Z,37.63
2017-11-16T06:30:29.873Z,32.72
2017-11-16T06:31:32.332Z,36.08
2017-11-16T06:32:34.796Z,29.05
2017-11-16T06:33:37.499Z,33.92
2017-11-16T06:34:39.983Z,30.95
2017-11-16T06:35:42.493Z,29.00
2017-11-16T06:36:44.971Z,35.42
2017-11-16T06:37:47.455Z,34.95
2017-11-16T06:38:49.934Z,34.03
2017-11-16T06:39:52.396Z,32.22
2017-11-16T06:40:54.927Z,35.55
2017-11-16T06:41:57.412Z,41.78
2017-11-16T06:42:59.885Z,35.08
2017-11-16T06:44:02.357Z,33.95
2017-11-16T06:45:04.843Z,40.80
2017-11-16T06:46:07.303Z,35.08
2017-11-16T06:47:09.806Z,34.72
2017-11-16T06:48:12.288Z,36.40
2017-11-16T06:49:14.756Z,39.90
2017-11-16T06:50:17.233Z,40.38
2017-11-16T06:51:19.710Z,35.85
2017-11-16T06:52:22.220Z,42.88
2017-11-16T06:53:24.710Z,42.90
2017-11-16T06:54:27.179Z,37.95
2017-11-16T06:55:30.203Z,41.13
2017-11-16T06:56:32.681Z,34.42
2017-11-16T06:57:35.150Z,44.65
2017-11-16T06:58:37.634Z,45.45
2017-11-16T06:59:40.189Z,38.92
2017-11-16T07:00:42.713Z,36.03
2017-11-16T07:01:45.198Z,39.83
2017-11-16T07:02:47.699Z,43.53
2017-11-16T07:03:50.211Z,46.47
2017-11-16T07:04:52.679Z,47.40
2017-11-16T07:05:55.177Z,48.33
2017-11-16T07:06:58.595Z,56.78
2017-11-16T07:08:01.161Z,41.55
2017-11-16T07:09:03.640Z,43.20
2017-11-16T07:10:06.127Z,51.08
2017-11-16T07:11:08.604Z,43.70
2017-11-16T07:12:11.068Z,38.22
2017-11-16T07:13:13.532Z,35.35
2017-11-16T07:14:16.019Z,35.08
2017-11-16T07:15:18.483Z,35.78
2017-11-16T07:16:20.963Z,36.80
2017-11-16T07:17:23.571Z,39.00
2017-11-16T07:18:26.036Z,37.00
2017-11-16T07:19:28.501Z,37.08
2017-11-16T07:20:31.007Z,33.20
2017-11-16T07:21:33.458Z,40.55
2017-11-16T07:22:35.938Z,39.47
2017-11-16T07:23:38.417Z,36.40
2017-11-16T07:24:40.880Z,36.92
2017-11-16T07:25:43.376Z,36.10
2017-11-16T07:26:45.858Z,41.60
2017-11-16T07:27:48.314Z,34.95
2017-11-16T07:28:50.780Z,33.53
2017-11-16T07:29:53.261Z,35.30
2017-11-16T07:30:55.728Z,32.38
2017-11-16T07:31:58.195Z,30.37
2017-11-16T07:33:00.664Z,35.90
2017-11-16T07:34:03.154Z,33.75
2017-11-16T07:35:05.682Z,37.38
2017-11-16T07:36:08.170Z,37.78
2017-11-16T07:37:10.652Z,37.72
2017-11-16T07:38:13.120Z,42.70
2017-11-16T07:39:15.593Z,39.95
2017-11-16T07:40:18.081Z,33.45
2017-11-16T07:41:20.570Z,35.17
2017-11-16T07:42:23.056Z,38.17
2017-11-16T07:43:25.561Z,36.15
2017-11-16T07:44:28.040Z,41.85
2017-11-16T07:45:30.504Z,41.90
2017-11-16T07:46:32.288Z,38.65
2017-11-16T07:47:34.757Z,37.95
2017-11-16T07:48:37.260Z,33.20
2017-11-16T07:49:39.738Z,41.08
2017-11-16T07:50:42.213Z,36.25
2017-11-16T07:51:44.690Z,32.85
2017-11-16T07:52:47.170Z,41.37
2017-11-16T07:53:49.646Z,44.05
2017-11-16T07:54:52.139Z,39.60
2017-11-16T07:55:54.619Z,33.38
2017-11-16T07:56:57.084Z,36.17
2017-11-16T07:57:59.568Z,40.83
2017-11-16T07:59:02.055Z,31.27
2017-11-16T08:00:04.523Z,37.67
2017-11-16T08:01:07.004Z,34.63
2017-11-16T08:02:09.488Z,38.22
2017-11-16T08:03:11.256Z,34.53
2017-11-16T08:04:13.734Z,37.33
2017-11-16T08:05:16.218Z,39.33
2017-11-16T08:06:18.692Z,37.17
2017-11-16T08:07:21.171Z,35.42
2017-11-16T08:08:23.646Z,65.82
2017-11-16T08:09:26.159Z,35.20
2017-11-16T08:10:28.662Z,41.50
2017-11-16T08:11:31.145Z,36.92
2017-11-16T08:12:33.628Z,38.70
2017-11-16T08:13:36.110Z,35.78
2017-11-16T08:14:38.615Z,38.33
2017-11-16T08:15:41.107Z,40.22
2017-11-16T08:16:43.591Z,44.97
2017-11-16T08:17:46.085Z,35.45
2017-11-16T08:18:48.561Z,40.60
2017-11-16T08:19:51.064Z,38.50
2017-11-16T08:20:53.542Z,39.55
2017-11-16T08:21:56.012Z,35.13
2017-11-16T08:22:58.476Z,39.47
2017-11-16T08:24:00.941Z,54.05
2017-11-16T08:25:03.451Z,39.05
2017-11-16T08:26:05.962Z,42.03
2017-11-16T08:27:08.436Z,34.50
2017-11-16T08:28:10.916Z,42.30
2017-11-16T08:29:13.379Z,35.47
2017-11-16T08:30:15.883Z,37.35
2017-11-16T08:31:18.353Z,34.90
2017-11-16T08:32:20.848Z,39.50
2017-11-16T08:33:23.325Z,31.48
2017-11-16T08:34:25.805Z,37.38
2017-11-16T08:35:28.295Z,43.50
2017-11-16T08:36:30.778Z,38.58
2017-11-16T08:37:33.253Z,37.83
2017-11-16T08:38:35.727Z,34.20
2017-11-16T08:39:38.189Z,37.65
2017-11-16T08:40:40.698Z,39.83
2017-11-16T08:41:43.160Z,40.25
2017-11-16T08:42:45.638Z,37.53
2017-11-16T08:43:48.109Z,38.67
2017-11-16T08:44:50.579Z,41.15
2017-11-16T08:45:53.085Z,38.88
2017-11-16T08:46:55.575Z,35.00
2017-11-16T08:47:58.041Z,34.83
2017-11-16T08:49:00.530Z,41.20
2017-11-16T08:50:02.996Z,33.60
2017-11-16T08:51:05.508Z,43.72
2017-11-16T08:52:08.008Z,34.97
2017-11-16T08:53:10.502Z,34.55
2017-11-16T08:54:12.971Z,38.80
2017-11-16T08:55:15.452Z,44.67
2017-11-16T08:56:17.970Z,52.05
2017-11-16T08:57:20.469Z,41.15
2017-11-16T08:58:22.959Z,38.83
2017-11-16T08:59:25.428Z,44.65
2017-11-16T09:00:27.901Z,40.38
2017-11-16T09:01:30.385Z,36.78
2017-11-16T09:02:32.861Z,35.65
2017-11-16T09:03:35.334Z,42.35
2017-11-16T09:04:37.825Z,33.90
2017-11-16T09:05:40.305Z,42.28
2017-11-16T09:06:42.798Z,39.08
2017-11-16T09:07:45.261Z,38.60
2017-11-16T09:08:47.730Z,39.80
2017-11-16T09:09:50.222Z,47.78
2017-11-16T09:10:52.709Z,42.45
2017-11-16T09:11:55.213Z,38.85
2017-11-16T09:12:57.707Z,41.50
2017-11-16T09:14:00.189Z,42.10
2017-11-16T09:15:02.666Z,40.88
2017-11-16T09:16:05.146Z,39.42
2017-11-16T09:17:07.665Z,40.83
2017-11-16T09:18:10.161Z,35.90
2017-11-16T09:19:12.648Z,44.95
2017-11-16T09:20:15.134Z,42.38
2017-11-16T09:21:17.635Z,43.38
2017-11-16T09:22:20.139Z,42.85
2017-11-16T09:23:22.629Z,41.65
2017-11-16T09:24:25.130Z,41.20
2017-11-16T09:25:27.614Z,41.15
2017-11-16T09:26:30.105Z,42.80
2017-11-16T09:27:32.625Z,44.08
2017-11-16T09:28:35.094Z,40.83
2017-11-16T09:29:37.559Z,37.33
2017-11-16T09:30:40.342Z,41.92
2017-11-16T09:31:43.051Z,35.97
2017-11-16T09:32:45.552Z,33.85
2017-11-16T09:33:48.058Z,38.90
2017-11-16T09:34:50.553Z,34.45
2017-11-16T09:35:53.028Z,38.67
2017-11-16T09:36:55.502Z,36.20
2017-11-16T09:37:58.023Z,38.83
2017-11-16T09:39:00.505Z,38.38
2017-11-16T09:40:03.009Z,39.63
2017-11-16T09:41:05.494Z,35.15
2017-11-16T09:42:07.973Z,38.75
2017-11-16T09:43:10.455Z,43.45
2017-11-16T09:44:12.960Z,43.05
2017-11-16T09:45:15.423Z,38.75
2017-11-16T09:46:17.894Z,40.35
2017-11-16T09:47:20.374Z,35.80
2017-11-16T09:48:22.857Z,39.35
2017-11-16T09:49:25.333Z,37.15
2017-11-16T09:50:27.813Z,41.35
2017-11-16T09:51:30.290Z,40.75
2017-11-16T09:52:32.777Z,46.05
2017-11-16T09:53:35.264Z,36.88
2017-11-16T09:54:37.758Z,36.72
2017-11-16T09:55:40.242Z,37.50
2017-11-16T09:56:42.722Z,39.00
2017-11-16T09:57:45.193Z,37.38
2017-11-16T09:58:47.738Z,38.42
2017-11-16T09:59:50.212Z,35.63
2017-11-16T10:00:52.703Z,39.58
2017-11-16T10:01:55.177Z,39.70
2017-11-16T10:02:57.649Z,38.20
2017-11-16T10:04:00.157Z,34.72
2017-11-16T10:05:02.638Z,40.65
2017-11-16T10:06:05.146Z,38.38
2017-11-16T10:07:07.632Z,32.55
2017-11-16T10:08:10.142Z,41.30
2017-11-16T10:09:12.640Z,33.88
2017-11-16T10:10:15.099Z,32.90
2017-11-16T10:11:17.576Z,35.08
2017-11-16T10:12:20.064Z,41.20
2017-11-16T10:13:22.550Z,33.28
2017-11-16T10:14:25.062Z,35.53
2017-11-16T10:15:27.532Z,32.85
2017-11-16T10:16:30.019Z,39.45
2017-11-16T10:17:32.489Z,40.72
2017-11-16T10:18:35.014Z,34.67
2017-11-16T10:19:37.515Z,38.38
2017-11-16T10:20:39.994Z,43.80
2017-11-16T10:21:42.461Z,36.70
2017-11-16T10:22:44.938Z,29.98
2017-11-16T10:23:47.442Z,34.22
2017-11-16T10:24:49.950Z,35.35
2017-11-16T10:25:52.440Z,34.92
2017-11-16T10:26:54.938Z,34.95
2017-11-16T10:27:57.433Z,36.88
2017-11-16T10:28:59.916Z,36.92
2017-11-16T10:30:02.399Z,36.30
2017-11-16T10:31:04.883Z,41.13
2017-11-16T10:32:07.366Z,38.40
2017-11-16T10:33:09.840Z,38.22
2017-11-16T10:34:12.317Z,38.78
2017-11-16T10:35:14.799Z,39.75
2017-11-16T10:36:17.281Z,40.85
2017-11-16T10:37:19.773Z,36.10
2017-11-16T10:38:22.264Z,41.70
2017-11-16T10:39:24.779Z,34.78
2017-11-16T10:40:27.288Z,33.80
2017-11-16T10:41:29.766Z,37.33
2017-11-16T10:42:32.236Z,37.97
2017-11-16T10:43:34.705Z,34.00
2017-11-16T10:44:37.187Z,40.97
2017-11-16T10:45:39.697Z,34.08
2017-11-16T10:46:42.190Z,36.38
2017-11-16T10:47:44.675Z,39.67
2017-11-16T10:48:47.148Z,29.00
2017-11-16T10:49:49.616Z,31.42
2017-11-16T10:50:52.099Z,27.35
2017-11-16T10:51:54.579Z,34.80
2017-11-16T10:52:57.063Z,32.22
2017-11-16T10:53:59.564Z,33.90
2017-11-16T10:55:02.048Z,29.00
2017-11-16T10:56:04.543Z,31.67
2017-11-16T10:57:07.027Z,31.30
2017-11-16T10:58:09.511Z,28.35
2017-11-16T10:59:11.988Z,32.60
2017-11-16T11:00:14.482Z,27.87
2017-11-16T11:01:16.979Z,28.50
2017-11-16T11:02:19.477Z,27.52
2017-11-16T11:03:21.952Z,39.40
2017-11-16T11:04:24.421Z,32.10
2017-11-16T11:05:26.897Z,30.62
2017-11-16T11:06:29.391Z,25.62
2017-11-16T11:07:31.900Z,28.08
2017-11-16T11:08:34.408Z,28.35
2017-11-16T11:09:36.876Z,25.08
2017-11-16T11:10:39.363Z,28.27
2017-11-16T11:11:41.827Z,33.55
2017-11-16T11:12:44.292Z,28.42
2017-11-16T11:13:46.770Z,34.65
2017-11-16T11:14:49.279Z,28.02
2017-11-16T11:15:51.757Z,29.70
2017-11-16T11:16:54.229Z,30.70
2017-11-16T11:17:56.688Z,32.17
2017-11-16T11:18:59.175Z,24.02
2017-11-16T11:20:01.664Z,26.17
2017-11-16T11:21:04.132Z,26.25
2017-11-16T11:22:06.634Z,28.25
2017-11-16T11:23:09.128Z,32.83
2017-11-16T11:24:11.618Z,27.60
2017-11-16T11:25:14.098Z,26.15
2017-11-16T11:26:16.583Z,26.92
2017-11-16T11:27:19.095Z,28.73
2017-11-16T11:28:21.588Z,25.88
2017-11-16T11:29:24.075Z,27.92
2017-11-16T11:30:26.547Z,28.75
2017-11-16T11:31:29.027Z,26.00
2017-11-16T11:32:31.519Z,24.00
2017-11-16T11:33:33.988Z,23.60
2017-11-16T11:34:36.470Z,29.42
2017-11-16T11:35:38.947Z,28.90
2017-11-16T11:36:41.429Z,25.83
2017-11-16T11:37:43.913Z,23.42
2017-11-16T11:38:46.389Z,25.20
2017-11-16T11:39:48.875Z,21.87
2017-11-16T11:40:51.353Z,22.52
2017-11-16T11:41:53.834Z,24.40
2017-11-16T11:42:56.303Z,26.35
2017-11-16T11:43:58.785Z,29.20
2017-11-16T11:45:01.276Z,26.37
2017-11-16T11:46:03.767Z,21.92
2017-11-16T11:47:06.236Z,24.87
2017-11-16T11:48:08.728Z,27.87
2017-11-16T11:49:11.213Z,27.77
2017-11-16T11:50:13.697Z,21.35
2017-11-16T11:51:16.243Z,24.98
2017-11-16T11:52:18.715Z,20.60
2017-11-16T11:53:21.216Z,22.35
2017-11-16T11:54:23.698Z,20.60
2017-11-16T11:55:26.177Z,23.58
2017-11-16T11:56:28.679Z,27.17
2017-11-16T11:57:31.163Z,26.77
2017-11-16T11:58:33.667Z,20.62
2017-11-16T11:59:36.137Z,25.17
2017-11-16T12:00:38.614Z,18.02
2017-11-16T12:01:41.083Z,23.90
2017-11-16T12:02:43.562Z,19.73
2017-11-16T12:03:46.052Z,21.27
2017-11-16T12:04:48.540Z,21.08
2017-11-16T12:05:51.004Z,22.40
2017-11-16T12:06:53.485Z,22.42
2017-11-16T12:07:55.950Z,22.83
2017-11-16T12:08:58.456Z,21.40
2017-11-16T12:10:00.938Z,24.37
2017-11-16T12:11:03.412Z,20.45
2017-11-16T12:12:05.900Z,24.35
2017-11-16T12:13:08.361Z,20.70
2017-11-16T12:14:10.859Z,21.52
2017-11-16T12:15:13.320Z,21.02
2017-11-16T12:16:15.817Z,20.52
2017-11-16T12:17:18.490Z,20.20
2017-11-16T12:18:20.953Z,33.08
2017-11-16T12:19:23.449Z,37.67
2017-11-16T12:20:25.934Z,58.42
2017-11-16T12:21:28.442Z,30.95
2017-11-16T12:22:30.912Z,25.92
2017-11-16T12:23:33.402Z,44.40
2017-11-16T12:24:35.885Z,40.45
2017-11-16T12:25:38.384Z,22.90
2017-11-16T12:26:40.871Z,34.63
2017-11-16T12:27:43.379Z,21.17
2017-11-16T12:28:45.844Z,24.63
2017-11-16T12:29:48.378Z,24.85
2017-11-16T12:30:50.872Z,20.27
2017-11-16T12:31:53.340Z,21.52
2017-11-16T12:32:56.041Z,20.30
2017-11-16T12:33:58.528Z,24.85
2017-11-16T12:35:01.207Z,29.92
2017-11-16T12:36:03.891Z,22.30
2017-11-16T12:37:06.690Z,22.65
2017-11-16T12:38:09.596Z,20.95
2017-11-16T12:39:12.455Z,25.70
2017-11-16T12:40:15.265Z,42.53
2017-11-16T12:41:17.764Z,29.20
2017-11-16T12:42:21.987Z,25.05
2017-11-16T12:43:24.490Z,22.17
2017-11-16T12:44:26.956Z,18.23
2017-11-16T12:45:29.449Z,19.77
2017-11-16T12:46:31.932Z,23.20
2017-11-16T12:47:34.443Z,19.98
2017-11-16T12:48:36.928Z,24.42
2017-11-16T12:49:39.426Z,26.85
2017-11-16T12:50:41.930Z,20.98
2017-11-16T12:51:44.430Z,20.58
2017-11-16T12:52:46.914Z,29.50
2017-11-16T12:53:49.412Z,23.75
2017-11-16T12:54:51.893Z,32.33
2017-11-16T12:55:54.617Z,25.60
2017-11-16T12:56:57.112Z,25.73
2017-11-16T12:57:59.592Z,177.25
2017-11-16T12:59:02.097Z,147.37
2017-11-16T13:00:04.588Z,67.35
2017-11-16T13:01:07.072Z,45.15
2017-11-16T13:02:09.557Z,28.52
2017-11-16T13:03:12.040Z,51.03
2017-11-16T13:04:14.570Z,30.83
2017-11-16T13:05:17.045Z,28.62
2017-11-16T13:06:19.553Z,33.45
2017-11-16T13:07:22.029Z,36.10
2017-11-16T13:08:24.513Z,44.28
2017-11-16T13:09:26.998Z,29.50
2017-11-16T13:10:29.477Z,33.50
2017-11-16T13:11:31.991Z,30.85
2017-11-16T13:12:34.457Z,33.60
2017-11-16T13:13:37.598Z,24.70
2017-11-16T13:14:40.069Z,24.60
2017-11-16T13:15:42.539Z,20.85
2017-11-16T13:16:45.074Z,30.80
2017-11-16T13:17:47.544Z,22.77
2017-11-16T13:18:50.069Z,20.48
2017-11-16T13:19:52.550Z,32.10
2017-11-16T13:20:55.025Z,26.90
2017-11-16T13:21:57.544Z,23.38
2017-11-16T13:23:00.048Z,27.13
2017-11-16T13:24:02.553Z,23.02
2017-11-16T13:25:05.024Z,22.75
2017-11-16T13:26:07.498Z,20.33